Booth, Texas
Current Conditions -  °F | °C
As of 5:26 AM on Thursday 18 Dec 2014 (Local Time) from KSGR Reporting Station
Haze Haze  
Wind Chill: 63°   Ceiling: 3400
Heat Index: 63°   Visibility: 5mi
Dew Point: 61°   Wind: 0mph
Humidity: 93%   Direction: NA
Pressure: 30.04"   Gusts: NA
Location:  29.4892°N, 95.6914°W
Report Text: KSGR 181126Z AUTO 00000KT 5SM BR SCT006 BKN034 OVC080 17/16 A3004 RMK AO2 T01720161
Loading
Personal Weather Stations






























Interactive Weather Map New forecast layout! Learn more

10-Day Weather Forecast

Advertisements
Track Severe Weather on mobile